Airfield :
LOGIN :

Register | Disclaimer

   EN    FR    IT 

 










Legend :    VFR   Marginal VFR   IFR   Intensive IFR   Very Intensive IFR
Visi :
Ceiling :
>= 8 km
>= 3000ft
5 to 8 km
1000 to 3000 ft
1500m to 5 km
500 to 1000 ft
800 to 1500m
200 to 500 ft
< 800m
< 200 ft
Symbols :   Thunderstorms  Fog  Heavy snow  Heavy precipitations  Wind > 20 kt
SIGMETs :     Misc.  Thunderstorms  Icing  Turbulence  Mountain Waves  Volcanic Ashes







- Airport Elevation : 423 ft
- IATA code : PIS
- Download approach charts


LFBI - Poitiers

CURRENT METAR :
  • 210700Z AUTO 31005KT 290V350 1600 1400 R21/1800D BR VV/// 11/11 Q1017 BECMG 9999 NSW BKN008

EXPIRED METARs :
  • 210630Z AUTO 31003KT 270V330 0550 0500 R21/0900N FG VV/// 10/10 Q1017 BECMG 9999 NSW BKN008
  • 210600Z AUTO 29003KT 0750 0550 R21/1300U FG VV/// 10/10 Q1017 BECMG 9999 NSW BKN008
  • 210530Z AUTO 30003KT 0650 0600 R21/0650D FG VV/// 09/09 Q1017 BECMG 9999 NSW BKN008
  • 210500Z AUTO VRB02KT 0350 R21/0500N FG VV/// 09/09 Q1016 NOSIG
  • 210430Z AUTO 30003KT 0250 R21/0325N FG VV/// 09/09 Q1016 TEMPO 0400 FG

TAF AMD TAF LFBI
Valid from the 21 at 06:00 until the 22 at 06:00 UTC


210608Z 2106/2206 30004KT 1500 BR BKN003
TEMPO 2106/2108 0500 FG VV///
BECMG 2108/2110 9999 NSW BKN008
BECMG 2110/2112 BKN025
PROB40
TEMPO 2112/2116 -SHRA BKN030TCU
BECMG 2116/2118 CAVOK
PROB40 2203/2206 0800 BCFG
No reported NOTAMs for that airfield.



MET'MAP, your aeronautical weather chart ! - Copyright ORBIFLY December 2007 - Disclaimer

ORBIFLY MET'MAP TEAM :

Programming & Development : Alexandra Zaïnal
Concept & Development : Baudouin d'Aumeries
Co-Development & Prog : Marc-Olivier Méhu
Technical & hardware support : Manuel Goepfert

Contact : metmap@orbifly.com




SOURCES & CREDITS :

   NOAA